sensor_id;sensor_type;location;lat;lon;timestamp;temperature;humidity
52159;DHT22;38145;53.182;6.284;2023-05-02T00:00:37;9.50;99.90
52159;DHT22;38145;53.182;6.284;2023-05-02T00:03:03;9.50;99.90
52159;DHT22;38145;53.182;6.284;2023-05-02T00:05:30;9.60;99.90
52159;DHT22;38145;53.182;6.284;2023-05-02T00:07:56;9.50;99.90
52159;DHT22;38145;53.182;6.284;2023-05-02T00:10:22;9.50;99.90
52159;DHT22;38145;53.182;6.284;2023-05-02T00:12:48;9.50;99.90
52159;DHT22;38145;53.182;6.284;2023-05-02T00:15:14;9.50;99.90
52159;DHT22;38145;53.182;6.284;2023-05-02T00:17:40;9.50;99.90
52159;DHT22;38145;53.182;6.284;2023-05-02T00:20:08;9.50;99.90
52159;DHT22;38145;53.182;6.284;2023-05-02T00:22:34;9.40;99.90
52159;DHT22;38145;53.182;6.284;2023-05-02T00:25:01;9.40;99.90
52159;DHT22;38145;53.182;6.284;2023-05-02T00:27:28;9.50;99.90
52159;DHT22;38145;53.182;6.284;2023-05-02T00:29:54;9.50;99.90
52159;DHT22;38145;53.182;6.284;2023-05-02T00:32:19;9.40;99.90
52159;DHT22;38145;53.182;6.284;2023-05-02T00:34:45;9.50;99.90
52159;DHT22;38145;53.182;6.284;2023-05-02T00:37:11;9.50;99.90
52159;DHT22;38145;53.182;6.284;2023-05-02T00:39:38;9.40;99.90
52159;DHT22;38145;53.182;6.284;2023-05-02T00:42:03;9.40;99.90
52159;DHT22;38145;53.182;6.284;2023-05-02T00:44:30;9.40;99.90
52159;DHT22;38145;53.182;6.284;2023-05-02T00:46:56;9.30;99.90
52159;DHT22;38145;53.182;6.284;2023-05-02T00:49:23;9.30;99.90
52159;DHT22;38145;53.182;6.284;2023-05-02T00:51:49;9.30;99.90
52159;DHT22;38145;53.182;6.284;2023-05-02T00:54:15;9.20;99.90
52159;DHT22;38145;53.182;6.284;2023-05-02T00:56:41;9.30;99.90
52159;DHT22;38145;53.182;6.284;2023-05-02T00:59:07;9.20;99.90
52159;DHT22;38145;53.182;6.284;2023-05-02T01:01:58;9.30;99.90
52159;DHT22;38145;53.182;6.284;2023-05-02T01:04:39;9.30;99.90
52159;DHT22;38145;53.182;6.284;2023-05-02T01:13:11;9.30;99.90
52159;DHT22;38145;53.182;6.284;2023-05-02T01:15:39;9.30;99.90
52159;DHT22;38145;53.182;6.284;2023-05-02T01:18:08;9.20;99.90
52159;DHT22;38145;53.182;6.284;2023-05-02T01:20:36;9.00;99.90
52159;DHT22;38145;53.182;6.284;2023-05-02T01:23:12;8.90;99.90
52159;DHT22;38145;53.182;6.284;2023-05-02T01:25:47;8.70;99.90
52159;DHT22;38145;53.182;6.284;2023-05-02T01:28:35;8.70;99.90
52159;DHT22;38145;53.182;6.284;2023-05-02T01:31:04;8.60;99.90
52159;DHT22;38145;53.182;6.284;2023-05-02T01:33:31;8.50;99.90
52159;DHT22;38145;53.182;6.284;2023-05-02T01:36:01;8.60;99.90
52159;DHT22;38145;53.182;6.284;2023-05-02T01:38:28;8.50;99.90
52159;DHT22;38145;53.182;6.284;2023-05-02T01:40:56;8.50;99.90
52159;DHT22;38145;53.182;6.284;2023-05-02T01:43:29;8.50;99.90
52159;DHT22;38145;53.182;6.284;2023-05-02T01:45:56;8.40;99.90
52159;DHT22;38145;53.182;6.284;2023-05-02T01:48:23;8.40;99.90
52159;DHT22;38145;53.182;6.284;2023-05-02T01:50:51;8.30;99.90
52159;DHT22;38145;53.182;6.284;2023-05-02T01:53:17;8.40;99.90
52159;DHT22;38145;53.182;6.284;2023-05-02T01:55:48;8.30;99.90
52159;DHT22;38145;53.182;6.284;2023-05-02T01:58:16;8.30;99.90
52159;DHT22;38145;53.182;6.284;2023-05-02T02:00:44;8.20;99.90
52159;DHT22;38145;53.182;6.284;2023-05-02T02:03:12;8.20;99.90
52159;DHT22;38145;53.182;6.284;2023-05-02T02:05:39;8.10;99.90
52159;DHT22;38145;53.182;6.284;2023-05-02T02:08:06;8.10;99.90
52159;DHT22;38145;53.182;6.284;2023-05-02T02:10:36;8.00;99.90
52159;DHT22;38145;53.182;6.284;2023-05-02T02:13:25;7.90;99.90
52159;DHT22;38145;53.182;6.284;2023-05-02T02:15:57;7.90;99.90
52159;DHT22;38145;53.182;6.284;2023-05-02T02:18:25;7.90;99.90
52159;DHT22;38145;53.182;6.284;2023-05-02T02:20:52;7.90;99.90
52159;DHT22;38145;53.182;6.284;2023-05-02T02:23:20;7.90;99.90
52159;DHT22;38145;53.182;6.284;2023-05-02T02:25:49;7.90;99.90
52159;DHT22;38145;53.182;6.284;2023-05-02T02:28:15;7.80;99.90
52159;DHT22;38145;53.182;6.284;2023-05-02T02:30:41;7.90;99.90
52159;DHT22;38145;53.182;6.284;2023-05-02T02:33:07;7.90;99.90
52159;DHT22;38145;53.182;6.284;2023-05-02T02:35:39;7.80;99.90
52159;DHT22;38145;53.182;6.284;2023-05-02T02:38:19;7.80;99.90
52159;DHT22;38145;53.182;6.284;2023-05-02T02:40:54;7.80;99.90
52159;DHT22;38145;53.182;6.284;2023-05-02T02:43:37;7.70;99.90
52159;DHT22;38145;53.182;6.284;2023-05-02T02:46:15;7.70;99.90
52159;DHT22;38145;53.182;6.284;2023-05-02T02:48:54;7.70;99.90
52159;DHT22;38145;53.182;6.284;2023-05-02T02:51:28;7.70;99.90
52159;DHT22;38145;53.182;6.284;2023-05-02T02:56:38;7.50;99.90
52159;DHT22;38145;53.182;6.284;2023-05-02T02:59:13;7.50;99.90
52159;DHT22;38145;53.182;6.284;2023-05-02T03:01:43;7.40;99.90
52159;DHT22;38145;53.182;6.284;2023-05-02T03:04:12;7.40;99.90
52159;DHT22;38145;53.182;6.284;2023-05-02T03:06:40;7.40;99.90
52159;DHT22;38145;53.182;6.284;2023-05-02T03:09:14;7.40;99.90
52159;DHT22;38145;53.182;6.284;2023-05-02T03:11:42;7.30;99.90
52159;DHT22;38145;53.182;6.284;2023-05-02T03:14:09;7.30;99.90
52159;DHT22;38145;53.182;6.284;2023-05-02T03:16:38;7.30;99.90
52159;DHT22;38145;53.182;6.284;2023-05-02T03:19:04;7.30;99.90
52159;DHT22;38145;53.182;6.284;2023-05-02T03:21:31;7.30;99.90
52159;DHT22;38145;53.182;6.284;2023-05-02T03:24:00;7.40;99.90
52159;DHT22;38145;53.182;6.284;2023-05-02T03:26:26;7.30;99.90
52159;DHT22;38145;53.182;6.284;2023-05-02T03:28:53;7.30;99.90
52159;DHT22;38145;53.182;6.284;2023-05-02T03:31:19;7.40;99.90
52159;DHT22;38145;53.182;6.284;2023-05-02T03:33:46;7.40;99.90
52159;DHT22;38145;53.182;6.284;2023-05-02T03:36:12;7.30;99.90
52159;DHT22;38145;53.182;6.284;2023-05-02T03:38:38;7.30;99.90
52159;DHT22;38145;53.182;6.284;2023-05-02T03:41:04;7.30;99.90
52159;DHT22;38145;53.182;6.284;2023-05-02T03:43:30;7.20;99.90
52159;DHT22;38145;53.182;6.284;2023-05-02T03:45:57;7.30;99.90
52159;DHT22;38145;53.182;6.284;2023-05-02T03:48:23;7.30;99.90
52159;DHT22;38145;53.182;6.284;2023-05-02T03:50:49;7.20;99.90
52159;DHT22;38145;53.182;6.284;2023-05-02T03:53:15;7.20;99.90
52159;DHT22;38145;53.182;6.284;2023-05-02T03:55:42;7.20;99.90
52159;DHT22;38145;53.182;6.284;2023-05-02T03:58:09;7.20;99.90
52159;DHT22;38145;53.182;6.284;2023-05-02T04:00:35;7.20;99.90
52159;DHT22;38145;53.182;6.284;2023-05-02T04:03:03;7.20;99.90
52159;DHT22;38145;53.182;6.284;2023-05-02T04:05:29;7.20;99.90
52159;DHT22;38145;53.182;6.284;2023-05-02T04:07:56;7.20;99.90
52159;DHT22;38145;53.182;6.284;2023-05-02T04:10:22;7.20;99.90
52159;DHT22;38145;53.182;6.284;2023-05-02T04:12:48;7.20;99.90
52159;DHT22;38145;53.182;6.284;2023-05-02T04:15:14;7.10;99.90
52159;DHT22;38145;53.182;6.284;2023-05-02T04:17:40;7.10;99.90
52159;DHT22;38145;53.182;6.284;2023-05-02T04:20:06;7.10;99.90
52159;DHT22;38145;53.182;6.284;2023-05-02T04:22:32;7.10;99.90
52159;DHT22;38145;53.182;6.284;2023-05-02T04:24:58;7.10;99.90
52159;DHT22;38145;53.182;6.284;2023-05-02T04:27:24;7.10;99.90
52159;DHT22;38145;53.182;6.284;2023-05-02T04:29:51;7.00;99.90
52159;DHT22;38145;53.182;6.284;2023-05-02T04:32:18;7.10;99.90
52159;DHT22;38145;53.182;6.284;2023-05-02T04:34:44;7.00;99.90
52159;DHT22;38145;53.182;6.284;2023-05-02T04:37:10;7.00;99.90
52159;DHT22;38145;53.182;6.284;2023-05-02T04:39:36;7.00;99.90
52159;DHT22;38145;53.182;6.284;2023-05-02T04:42:02;7.00;99.90
52159;DHT22;38145;53.182;6.284;2023-05-02T04:44:28;7.00;99.90
52159;DHT22;38145;53.182;6.284;2023-05-02T04:46:54;7.10;99.90
52159;DHT22;38145;53.182;6.284;2023-05-02T04:49:20;7.10;99.90
52159;DHT22;38145;53.182;6.284;2023-05-02T04:51:46;7.10;99.90
52159;DHT22;38145;53.182;6.284;2023-05-02T04:54:11;7.00;99.90
52159;DHT22;38145;53.182;6.284;2023-05-02T04:56:37;7.10;99.90
52159;DHT22;38145;53.182;6.284;2023-05-02T04:59:03;7.00;99.90
52159;DHT22;38145;53.182;6.284;2023-05-02T05:01:29;7.00;99.90
52159;DHT22;38145;53.182;6.284;2023-05-02T05:03:55;7.00;99.90
52159;DHT22;38145;53.182;6.284;2023-05-02T05:06:21;7.00;99.90
52159;DHT22;38145;53.182;6.284;2023-05-02T05:08:47;7.00;99.90
52159;DHT22;38145;53.182;6.284;2023-05-02T05:11:14;6.90;99.90
52159;DHT22;38145;53.182;6.284;2023-05-02T05:13:41;6.90;99.90
52159;DHT22;38145;53.182;6.284;2023-05-02T05:16:07;6.90;99.90
52159;DHT22;38145;53.182;6.284;2023-05-02T05:18:33;6.90;99.90
52159;DHT22;38145;53.182;6.284;2023-05-02T05:21:06;6.90;99.90
52159;DHT22;38145;53.182;6.284;2023-05-02T05:23:33;6.90;99.90
52159;DHT22;38145;53.182;6.284;2023-05-02T05:26:12;6.80;99.90
52159;DHT22;38145;53.182;6.284;2023-05-02T05:28:40;6.90;99.90
52159;DHT22;38145;53.182;6.284;2023-05-02T05:31:08;6.90;99.90
52159;DHT22;38145;53.182;6.284;2023-05-02T05:33:35;6.90;99.90
52159;DHT22;38145;53.182;6.284;2023-05-02T05:36:04;6.90;99.90
52159;DHT22;38145;53.182;6.284;2023-05-02T05:38:30;6.90;99.90
52159;DHT22;38145;53.182;6.284;2023-05-02T05:40:56;6.90;99.90
52159;DHT22;38145;53.182;6.284;2023-05-02T05:43:22;7.00;99.90
52159;DHT22;38145;53.182;6.284;2023-05-02T05:45:51;7.00;99.90
52159;DHT22;38145;53.182;6.284;2023-05-02T05:48:17;7.00;99.90
52159;DHT22;38145;53.182;6.284;2023-05-02T05:50:43;7.00;99.90
52159;DHT22;38145;53.182;6.284;2023-05-02T05:53:09;7.00;99.90
52159;DHT22;38145;53.182;6.284;2023-05-02T05:55:35;7.10;99.90
52159;DHT22;38145;53.182;6.284;2023-05-02T05:58:02;7.10;99.90
52159;DHT22;38145;53.182;6.284;2023-05-02T06:00:28;7.10;99.90
52159;DHT22;38145;53.182;6.284;2023-05-02T06:02:55;7.10;99.90
52159;DHT22;38145;53.182;6.284;2023-05-02T06:05:21;7.10;99.90
52159;DHT22;38145;53.182;6.284;2023-05-02T06:07:46;7.10;99.90
52159;DHT22;38145;53.182;6.284;2023-05-02T06:10:12;7.10;99.90
52159;DHT22;38145;53.182;6.284;2023-05-02T06:12:38;7.10;99.90
52159;DHT22;38145;53.182;6.284;2023-05-02T06:15:04;7.10;99.90
52159;DHT22;38145;53.182;6.284;2023-05-02T06:17:30;7.10;99.90
52159;DHT22;38145;53.182;6.284;2023-05-02T06:19:56;7.20;99.90
52159;DHT22;38145;53.182;6.284;2023-05-02T06:22:22;7.20;99.90
52159;DHT22;38145;53.182;6.284;2023-05-02T06:24:48;7.20;99.90
52159;DHT22;38145;53.182;6.284;2023-05-02T06:27:14;7.20;99.90
52159;DHT22;38145;53.182;6.284;2023-05-02T06:29:41;7.30;99.90
52159;DHT22;38145;53.182;6.284;2023-05-02T06:32:06;7.30;99.90
52159;DHT22;38145;53.182;6.284;2023-05-02T06:34:32;7.40;99.90
52159;DHT22;38145;53.182;6.284;2023-05-02T06:36:58;7.40;99.90
52159;DHT22;38145;53.182;6.284;2023-05-02T06:39:24;7.30;99.90
52159;DHT22;38145;53.182;6.284;2023-05-02T06:41:50;7.30;99.90
52159;DHT22;38145;53.182;6.284;2023-05-02T06:44:16;7.20;99.90
52159;DHT22;38145;53.182;6.284;2023-05-02T06:46:42;7.20;99.90
52159;DHT22;38145;53.182;6.284;2023-05-02T06:49:08;7.20;99.90
52159;DHT22;38145;53.182;6.284;2023-05-02T06:51:34;7.20;99.90
52159;DHT22;38145;53.182;6.284;2023-05-02T06:54:00;7.20;99.90
52159;DHT22;38145;53.182;6.284;2023-05-02T06:56:25;7.20;99.90
52159;DHT22;38145;53.182;6.284;2023-05-02T06:58:52;7.30;99.90
52159;DHT22;38145;53.182;6.284;2023-05-02T07:01:18;7.40;99.90
52159;DHT22;38145;53.182;6.284;2023-05-02T07:03:45;7.40;99.90
52159;DHT22;38145;53.182;6.284;2023-05-02T07:06:11;7.50;99.90
52159;DHT22;38145;53.182;6.284;2023-05-02T07:08:37;7.50;99.90
52159;DHT22;38145;53.182;6.284;2023-05-02T07:11:03;7.50;99.90
52159;DHT22;38145;53.182;6.284;2023-05-02T07:13:29;7.60;99.90
52159;DHT22;38145;53.182;6.284;2023-05-02T07:15:56;7.60;99.90
52159;DHT22;38145;53.182;6.284;2023-05-02T07:18:22;7.60;99.90
52159;DHT22;38145;53.182;6.284;2023-05-02T07:20:48;7.60;99.90
52159;DHT22;38145;53.182;6.284;2023-05-02T07:23:14;7.70;99.90
52159;DHT22;38145;53.182;6.284;2023-05-02T07:25:40;7.70;99.90
52159;DHT22;38145;53.182;6.284;2023-05-02T07:28:06;7.70;99.90
52159;DHT22;38145;53.182;6.284;2023-05-02T07:30:32;7.70;99.90
52159;DHT22;38145;53.182;6.284;2023-05-02T07:32:58;7.70;99.90
52159;DHT22;38145;53.182;6.284;2023-05-02T07:35:24;7.70;99.90
52159;DHT22;38145;53.182;6.284;2023-05-02T07:37:50;7.60;99.90
52159;DHT22;38145;53.182;6.284;2023-05-02T07:40:16;7.60;99.90
52159;DHT22;38145;53.182;6.284;2023-05-02T07:42:42;7.60;99.90
52159;DHT22;38145;53.182;6.284;2023-05-02T07:45:09;7.60;99.90
52159;DHT22;38145;53.182;6.284;2023-05-02T07:47:35;7.70;99.90
52159;DHT22;38145;53.182;6.284;2023-05-02T07:50:01;7.80;99.90
52159;DHT22;38145;53.182;6.284;2023-05-02T07:52:29;7.80;99.90
52159;DHT22;38145;53.182;6.284;2023-05-02T07:54:55;7.90;99.90
52159;DHT22;38145;53.182;6.284;2023-05-02T07:57:21;7.90;99.90
52159;DHT22;38145;53.182;6.284;2023-05-02T07:59:48;7.90;99.90
52159;DHT22;38145;53.182;6.284;2023-05-02T08:02:14;7.90;99.90
52159;DHT22;38145;53.182;6.284;2023-05-02T08:04:42;7.90;99.90
52159;DHT22;38145;53.182;6.284;2023-05-02T08:07:08;7.90;99.90
52159;DHT22;38145;53.182;6.284;2023-05-02T08:09:33;7.90;99.90
52159;DHT22;38145;53.182;6.284;2023-05-02T08:11:59;7.90;99.90
52159;DHT22;38145;53.182;6.284;2023-05-02T08:14:27;7.90;99.90
52159;DHT22;38145;53.182;6.284;2023-05-02T08:16:53;8.00;99.90
52159;DHT22;38145;53.182;6.284;2023-05-02T08:19:19;8.00;99.90
52159;DHT22;38145;53.182;6.284;2023-05-02T08:21:45;7.90;99.90
52159;DHT22;38145;53.182;6.284;2023-05-02T08:24:11;7.90;99.90
52159;DHT22;38145;53.182;6.284;2023-05-02T08:26:37;7.90;99.90
52159;DHT22;38145;53.182;6.284;2023-05-02T08:29:02;7.90;99.90
52159;DHT22;38145;53.182;6.284;2023-05-02T08:31:29;8.00;99.90
52159;DHT22;38145;53.182;6.284;2023-05-02T08:33:55;8.00;99.90
52159;DHT22;38145;53.182;6.284;2023-05-02T08:36:21;8.00;99.90
52159;DHT22;38145;53.182;6.284;2023-05-02T08:38:47;8.00;99.90
52159;DHT22;38145;53.182;6.284;2023-05-02T08:41:15;8.10;99.90
52159;DHT22;38145;53.182;6.284;2023-05-02T08:43:43;8.20;99.90
52159;DHT22;38145;53.182;6.284;2023-05-02T08:46:10;8.30;99.90
52159;DHT22;38145;53.182;6.284;2023-05-02T08:48:38;8.40;99.90
52159;DHT22;38145;53.182;6.284;2023-05-02T08:51:07;8.50;99.90
52159;DHT22;38145;53.182;6.284;2023-05-02T08:53:35;8.90;99.90
52159;DHT22;38145;53.182;6.284;2023-05-02T08:56:02;9.10;99.90
52159;DHT22;38145;53.182;6.284;2023-05-02T08:58:28;9.10;99.90
52159;DHT22;38145;53.182;6.284;2023-05-02T09:00:56;9.10;99.90
52159;DHT22;38145;53.182;6.284;2023-05-02T09:03:34;9.00;99.90
52159;DHT22;38145;53.182;6.284;2023-05-02T09:06:04;8.90;99.90
52159;DHT22;38145;53.182;6.284;2023-05-02T09:08:30;8.80;99.90
52159;DHT22;38145;53.182;6.284;2023-05-02T09:10:57;8.80;99.90
52159;DHT22;38145;53.182;6.284;2023-05-02T09:18:29;8.90;99.90
52159;DHT22;38145;53.182;6.284;2023-05-02T09:20:57;9.20;99.90
52159;DHT22;38145;53.182;6.284;2023-05-02T09:23:35;9.50;99.90
52159;DHT22;38145;53.182;6.284;2023-05-02T09:26:18;9.80;99.90
52159;DHT22;38145;53.182;6.284;2023-05-02T09:28:47;9.80;99.90
52159;DHT22;38145;53.182;6.284;2023-05-02T09:31:16;9.60;99.90
52159;DHT22;38145;53.182;6.284;2023-05-02T09:33:43;9.40;99.90
52159;DHT22;38145;53.182;6.284;2023-05-02T09:36:13;9.40;99.90
52159;DHT22;38145;53.182;6.284;2023-05-02T09:38:40;10.00;99.90
52159;DHT22;38145;53.182;6.284;2023-05-02T09:41:06;10.20;99.90
52159;DHT22;38145;53.182;6.284;2023-05-02T09:43:32;10.00;99.90
52159;DHT22;38145;53.182;6.284;2023-05-02T09:46:06;9.80;99.90
52159;DHT22;38145;53.182;6.284;2023-05-02T09:48:52;9.50;99.90
52159;DHT22;38145;53.182;6.284;2023-05-02T09:51:19;9.30;99.90
52159;DHT22;38145;53.182;6.284;2023-05-02T09:53:45;9.00;99.90
52159;DHT22;38145;53.182;6.284;2023-05-02T09:56:12;8.90;99.90
52159;DHT22;38145;53.182;6.284;2023-05-02T09:58:38;8.80;99.90
52159;DHT22;38145;53.182;6.284;2023-05-02T10:01:04;8.90;99.90
52159;DHT22;38145;53.182;6.284;2023-05-02T10:03:30;9.10;99.90
52159;DHT22;38145;53.182;6.284;2023-05-02T10:05:57;9.60;99.90
52159;DHT22;38145;53.182;6.284;2023-05-02T10:08:25;9.70;99.90
52159;DHT22;38145;53.182;6.284;2023-05-02T10:10:55;9.70;99.90
52159;DHT22;38145;53.182;6.284;2023-05-02T10:13:23;9.70;99.90
52159;DHT22;38145;53.182;6.284;2023-05-02T10:15:59;9.70;99.90
52159;DHT22;38145;53.182;6.284;2023-05-02T10:18:31;10.00;99.90
52159;DHT22;38145;53.182;6.284;2023-05-02T10:21:00;10.40;99.90
52159;DHT22;38145;53.182;6.284;2023-05-02T10:23:30;10.80;99.90
52159;DHT22;38145;53.182;6.284;2023-05-02T10:25:57;11.10;99.90
52159;DHT22;38145;53.182;6.284;2023-05-02T10:28:25;11.10;99.90
52159;DHT22;38145;53.182;6.284;2023-05-02T10:30:52;10.60;99.90
52159;DHT22;38145;53.182;6.284;2023-05-02T10:33:20;10.10;99.90
52159;DHT22;38145;53.182;6.284;2023-05-02T10:35:46;9.90;99.90
52159;DHT22;38145;53.182;6.284;2023-05-02T10:38:18;10.30;99.90
52159;DHT22;38145;53.182;6.284;2023-05-02T10:40:51;10.50;99.90
52159;DHT22;38145;53.182;6.284;2023-05-02T10:43:23;10.00;99.90
52159;DHT22;38145;53.182;6.284;2023-05-02T10:45:50;9.50;99.90
52159;DHT22;38145;53.182;6.284;2023-05-02T10:48:17;9.30;99.90
52159;DHT22;38145;53.182;6.284;2023-05-02T10:53:22;9.20;99.90
52159;DHT22;38145;53.182;6.284;2023-05-02T10:56:10;9.30;99.90
52159;DHT22;38145;53.182;6.284;2023-05-02T10:58:36;9.40;99.90
52159;DHT22;38145;53.182;6.284;2023-05-02T11:03:59;9.60;99.90
52159;DHT22;38145;53.182;6.284;2023-05-02T11:06:27;9.60;99.90
52159;DHT22;38145;53.182;6.284;2023-05-02T11:11:41;10.20;99.90
52159;DHT22;38145;53.182;6.284;2023-05-02T11:14:08;10.50;99.90
52159;DHT22;38145;53.182;6.284;2023-05-02T11:19:27;10.20;99.90
52159;DHT22;38145;53.182;6.284;2023-05-02T11:24:44;10.40;99.90
52159;DHT22;38145;53.182;6.284;2023-05-02T11:29:58;11.40;99.90
52159;DHT22;38145;53.182;6.284;2023-05-02T11:33:09;11.00;99.90
52159;DHT22;38145;53.182;6.284;2023-05-02T11:35:16;10.40;99.90
52159;DHT22;38145;53.182;6.284;2023-05-02T11:37:42;10.20;99.90
52159;DHT22;38145;53.182;6.284;2023-05-02T11:40:10;10.20;99.90
52159;DHT22;38145;53.182;6.284;2023-05-02T11:42:36;10.00;99.90
52159;DHT22;38145;53.182;6.284;2023-05-02T11:45:02;9.90;99.90
52159;DHT22;38145;53.182;6.284;2023-05-02T11:47:31;9.80;99.90
52159;DHT22;38145;53.182;6.284;2023-05-02T11:49:58;9.60;99.90
52159;DHT22;38145;53.182;6.284;2023-05-02T11:52:25;9.40;99.90
52159;DHT22;38145;53.182;6.284;2023-05-02T11:54:53;9.50;99.90
52159;DHT22;38145;53.182;6.284;2023-05-02T11:57:21;9.30;99.90
52159;DHT22;38145;53.182;6.284;2023-05-02T11:59:51;9.20;99.90
52159;DHT22;38145;53.182;6.284;2023-05-02T12:02:18;9.30;99.90
52159;DHT22;38145;53.182;6.284;2023-05-02T12:04:43;9.30;99.90
52159;DHT22;38145;53.182;6.284;2023-05-02T12:07:09;9.50;99.90
52159;DHT22;38145;53.182;6.284;2023-05-02T12:09:35;9.70;99.90
52159;DHT22;38145;53.182;6.284;2023-05-02T12:12:18;9.90;99.90
52159;DHT22;38145;53.182;6.284;2023-05-02T12:14:45;10.20;99.90
52159;DHT22;38145;53.182;6.284;2023-05-02T12:17:11;10.60;99.90
52159;DHT22;38145;53.182;6.284;2023-05-02T12:19:37;10.70;99.90
52159;DHT22;38145;53.182;6.284;2023-05-02T12:22:03;11.00;99.90
52159;DHT22;38145;53.182;6.284;2023-05-02T12:24:30;11.20;99.90
52159;DHT22;38145;53.182;6.284;2023-05-02T12:27:13;11.00;99.90
52159;DHT22;38145;53.182;6.284;2023-05-02T12:29:41;11.00;99.90
52159;DHT22;38145;53.182;6.284;2023-05-02T12:32:08;10.90;99.90
52159;DHT22;38145;53.182;6.284;2023-05-02T12:34:35;10.60;99.90
52159;DHT22;38145;53.182;6.284;2023-05-02T12:37:02;10.40;99.90
52159;DHT22;38145;53.182;6.284;2023-05-02T12:42:10;10.30;99.90
52159;DHT22;38145;53.182;6.284;2023-05-02T12:44:38;10.50;99.90
52159;DHT22;38145;53.182;6.284;2023-05-02T12:47:04;10.60;99.90
52159;DHT22;38145;53.182;6.284;2023-05-02T12:49:31;10.90;99.90
52159;DHT22;38145;53.182;6.284;2023-05-02T12:51:57;11.10;99.90
52159;DHT22;38145;53.182;6.284;2023-05-02T12:54:24;11.20;99.90
52159;DHT22;38145;53.182;6.284;2023-05-02T12:56:51;11.50;99.90
52159;DHT22;38145;53.182;6.284;2023-05-02T12:59:26;11.60;99.90
52159;DHT22;38145;53.182;6.284;2023-05-02T13:01:53;10.70;99.90
52159;DHT22;38145;53.182;6.284;2023-05-02T13:04:19;10.20;99.90
52159;DHT22;38145;53.182;6.284;2023-05-02T13:06:45;9.90;99.90
52159;DHT22;38145;53.182;6.284;2023-05-02T13:09:11;9.70;99.90
52159;DHT22;38145;53.182;6.284;2023-05-02T13:11:37;9.60;99.90
52159;DHT22;38145;53.182;6.284;2023-05-02T13:14:04;9.50;99.90
52159;DHT22;38145;53.182;6.284;2023-05-02T13:16:30;9.40;99.90
52159;DHT22;38145;53.182;6.284;2023-05-02T13:18:58;9.50;99.90
52159;DHT22;38145;53.182;6.284;2023-05-02T13:21:24;9.50;99.90
52159;DHT22;38145;53.182;6.284;2023-05-02T13:23:49;9.60;99.90
52159;DHT22;38145;53.182;6.284;2023-05-02T13:26:16;9.80;99.90
52159;DHT22;38145;53.182;6.284;2023-05-02T13:28:42;9.80;99.90
52159;DHT22;38145;53.182;6.284;2023-05-02T13:31:08;9.80;99.90
52159;DHT22;38145;53.182;6.284;2023-05-02T13:33:34;10.00;99.90
52159;DHT22;38145;53.182;6.284;2023-05-02T13:36:00;10.50;99.90
52159;DHT22;38145;53.182;6.284;2023-05-02T13:38:26;10.70;99.90
52159;DHT22;38145;53.182;6.284;2023-05-02T13:40:52;10.70;99.90
52159;DHT22;38145;53.182;6.284;2023-05-02T13:43:18;10.70;99.90
52159;DHT22;38145;53.182;6.284;2023-05-02T13:45:44;10.90;99.90
52159;DHT22;38145;53.182;6.284;2023-05-02T13:48:13;10.90;99.90
52159;DHT22;38145;53.182;6.284;2023-05-02T13:50:40;10.60;99.90
52159;DHT22;38145;53.182;6.284;2023-05-02T13:53:06;10.40;99.90
52159;DHT22;38145;53.182;6.284;2023-05-02T13:55:32;10.40;99.90
52159;DHT22;38145;53.182;6.284;2023-05-02T13:57:57;10.60;99.90
52159;DHT22;38145;53.182;6.284;2023-05-02T14:00:23;10.80;99.90
52159;DHT22;38145;53.182;6.284;2023-05-02T14:02:49;10.90;99.90
52159;DHT22;38145;53.182;6.284;2023-05-02T14:05:15;10.70;99.90
52159;DHT22;38145;53.182;6.284;2023-05-02T14:07:41;10.40;99.90
52159;DHT22;38145;53.182;6.284;2023-05-02T14:10:07;10.30;99.90
52159;DHT22;38145;53.182;6.284;2023-05-02T14:12:33;10.20;99.90
52159;DHT22;38145;53.182;6.284;2023-05-02T14:14:59;10.00;99.90
52159;DHT22;38145;53.182;6.284;2023-05-02T14:17:25;9.70;99.90
52159;DHT22;38145;53.182;6.284;2023-05-02T14:19:52;9.50;99.90
52159;DHT22;38145;53.182;6.284;2023-05-02T14:22:17;9.40;99.90
52159;DHT22;38145;53.182;6.284;2023-05-02T14:24:43;9.50;99.90
52159;DHT22;38145;53.182;6.284;2023-05-02T14:27:09;9.50;99.90
52159;DHT22;38145;53.182;6.284;2023-05-02T14:29:39;9.60;99.90
52159;DHT22;38145;53.182;6.284;2023-05-02T14:32:04;9.70;99.90
52159;DHT22;38145;53.182;6.284;2023-05-02T14:34:30;9.60;99.90
52159;DHT22;38145;53.182;6.284;2023-05-02T14:36:56;9.60;99.90
52159;DHT22;38145;53.182;6.284;2023-05-02T14:39:22;9.60;99.90
52159;DHT22;38145;53.182;6.284;2023-05-02T14:41:48;9.60;99.90
52159;DHT22;38145;53.182;6.284;2023-05-02T14:44:14;9.80;99.90
52159;DHT22;38145;53.182;6.284;2023-05-02T14:46:40;10.20;99.90
52159;DHT22;38145;53.182;6.284;2023-05-02T14:49:06;10.30;99.90
52159;DHT22;38145;53.182;6.284;2023-05-02T14:51:32;10.40;99.90
52159;DHT22;38145;53.182;6.284;2023-05-02T14:53:58;10.30;99.90
52159;DHT22;38145;53.182;6.284;2023-05-02T14:56:24;10.30;99.90
52159;DHT22;38145;53.182;6.284;2023-05-02T14:58:50;10.10;99.90
52159;DHT22;38145;53.182;6.284;2023-05-02T15:01:17;10.10;99.90
52159;DHT22;38145;53.182;6.284;2023-05-02T15:03:43;10.00;99.90
52159;DHT22;38145;53.182;6.284;2023-05-02T15:06:12;9.90;99.90
52159;DHT22;38145;53.182;6.284;2023-05-02T15:08:39;9.80;99.90
52159;DHT22;38145;53.182;6.284;2023-05-02T15:11:05;9.70;99.90
52159;DHT22;38145;53.182;6.284;2023-05-02T15:13:31;9.50;99.90
52159;DHT22;38145;53.182;6.284;2023-05-02T15:15:57;9.50;99.90
52159;DHT22;38145;53.182;6.284;2023-05-02T15:18:23;9.40;99.90
52159;DHT22;38145;53.182;6.284;2023-05-02T15:20:49;9.40;99.90
52159;DHT22;38145;53.182;6.284;2023-05-02T15:23:15;9.40;99.90
52159;DHT22;38145;53.182;6.284;2023-05-02T15:25:41;9.50;99.90
52159;DHT22;38145;53.182;6.284;2023-05-02T15:28:07;9.50;99.90
52159;DHT22;38145;53.182;6.284;2023-05-02T15:30:33;9.50;99.90
52159;DHT22;38145;53.182;6.284;2023-05-02T15:32:59;9.60;99.90
52159;DHT22;38145;53.182;6.284;2023-05-02T15:35:25;9.60;99.90
52159;DHT22;38145;53.182;6.284;2023-05-02T15:37:51;9.60;99.90
52159;DHT22;38145;53.182;6.284;2023-05-02T15:40:17;9.70;99.90
52159;DHT22;38145;53.182;6.284;2023-05-02T15:42:43;9.70;99.90
52159;DHT22;38145;53.182;6.284;2023-05-02T15:45:11;9.70;99.90
52159;DHT22;38145;53.182;6.284;2023-05-02T15:47:39;9.70;99.90
52159;DHT22;38145;53.182;6.284;2023-05-02T15:50:06;9.70;99.90
52159;DHT22;38145;53.182;6.284;2023-05-02T15:52:32;9.70;99.90
52159;DHT22;38145;53.182;6.284;2023-05-02T15:54:59;9.50;99.90
52159;DHT22;38145;53.182;6.284;2023-05-02T15:57:26;9.40;99.90
52159;DHT22;38145;53.182;6.284;2023-05-02T15:59:52;9.40;99.90
52159;DHT22;38145;53.182;6.284;2023-05-02T16:02:18;9.30;99.90
52159;DHT22;38145;53.182;6.284;2023-05-02T16:04:44;9.20;99.90
52159;DHT22;38145;53.182;6.284;2023-05-02T16:07:11;9.20;99.90
52159;DHT22;38145;53.182;6.284;2023-05-02T16:09:37;9.30;99.90
52159;DHT22;38145;53.182;6.284;2023-05-02T16:12:04;9.30;99.90
52159;DHT22;38145;53.182;6.284;2023-05-02T16:14:32;9.40;99.90
52159;DHT22;38145;53.182;6.284;2023-05-02T16:16:57;9.30;99.90